sensor_id;sensor_type;location;lat;lon;timestamp;pressure;altitude;pressure_sealevel;temperature;humidity
19576;BME280;41589;51.196;7.074;2022-12-10T00:00:18;98113.09;;;0.87;100.00
19576;BME280;41589;51.196;7.074;2022-12-10T00:05:19;98107.91;;;0.89;100.00
19576;BME280;41589;51.196;7.074;2022-12-10T00:10:19;98105.50;;;0.91;100.00
19576;BME280;41589;51.196;7.074;2022-12-10T00:15:19;98108.22;;;0.95;100.00
19576;BME280;41589;51.196;7.074;2022-12-10T00:20:20;98094.72;;;0.97;100.00
19576;BME280;41589;51.196;7.074;2022-12-10T00:25:20;98096.78;;;0.93;100.00
19576;BME280;41589;51.196;7.074;2022-12-10T00:30:20;98104.13;;;0.79;100.00
19576;BME280;41589;51.196;7.074;2022-12-10T00:35:21;98097.56;;;0.70;100.00
19576;BME280;41589;51.196;7.074;2022-12-10T00:40:22;98107.44;;;0.71;100.00
19576;BME280;41589;51.196;7.074;2022-12-10T00:45:22;98097.69;;;0.63;100.00
19576;BME280;41589;51.196;7.074;2022-12-10T00:50:23;98103.25;;;0.63;100.00
19576;BME280;41589;51.196;7.074;2022-12-10T00:55:24;98097.69;;;0.63;100.00
19576;BME280;41589;51.196;7.074;2022-12-10T01:00:24;98106.78;;;0.63;100.00
19576;BME280;41589;51.196;7.074;2022-12-10T01:05:25;98102.91;;;0.57;100.00
19576;BME280;41589;51.196;7.074;2022-12-10T01:10:26;98107.38;;;0.51;100.00
19576;BME280;41589;51.196;7.074;2022-12-10T01:15:26;98109.38;;;0.50;100.00
19576;BME280;41589;51.196;7.074;2022-12-10T01:20:27;98106.22;;;0.48;100.00
19576;BME280;41589;51.196;7.074;2022-12-10T01:25:27;98112.66;;;0.42;100.00
19576;BME280;41589;51.196;7.074;2022-12-10T01:30:28;98121.78;;;0.39;100.00
19576;BME280;41589;51.196;7.074;2022-12-10T01:35:28;98126.13;;;0.40;100.00
19576;BME280;41589;51.196;7.074;2022-12-10T01:40:28;98112.28;;;0.40;100.00
19576;BME280;41589;51.196;7.074;2022-12-10T01:45:29;98130.47;;;0.41;100.00
19576;BME280;41589;51.196;7.074;2022-12-10T01:50:29;98139.97;;;0.40;100.00
19576;BME280;41589;51.196;7.074;2022-12-10T02:00:57;98134.03;;;0.14;100.00
19576;BME280;41589;51.196;7.074;2022-12-10T02:06:09;98138.06;;;0.10;100.00
19576;BME280;41589;51.196;7.074;2022-12-10T02:11:23;98149.94;;;0.07;100.00
19576;BME280;41589;51.196;7.074;2022-12-10T02:17:29;98145.03;;;0.18;100.00
19576;BME280;41589;51.196;7.074;2022-12-10T02:22:09;98139.91;;;0.16;100.00
19576;BME280;41589;51.196;7.074;2022-12-10T02:27:18;98145.03;;;0.18;100.00
19576;BME280;41589;51.196;7.074;2022-12-10T02:32:30;98133.66;;;0.12;100.00
19576;BME280;41589;51.196;7.074;2022-12-10T02:37:38;98140.75;;;0.13;100.00
19576;BME280;41589;51.196;7.074;2022-12-10T02:42:41;98141.53;;;0.14;100.00
19576;BME280;41589;51.196;7.074;2022-12-10T02:47:43;98133.97;;;0.18;100.00
19576;BME280;41589;51.196;7.074;2022-12-10T02:52:46;98143.03;;;0.18;100.00
19576;BME280;41589;51.196;7.074;2022-12-10T03:08:21;98143.03;;;0.18;100.00
19576;BME280;41589;51.196;7.074;2022-12-10T03:13:32;98141.47;;;0.17;100.00
19576;BME280;41589;51.196;7.074;2022-12-10T03:18:35;98143.03;;;0.18;100.00
19576;BME280;41589;51.196;7.074;2022-12-10T03:23:40;98147.50;;;0.12;100.00
19576;BME280;41589;51.196;7.074;2022-12-10T03:28:48;98156.16;;;0.14;100.00
19576;BME280;41589;51.196;7.074;2022-12-10T03:33:50;98171.56;;;0.15;100.00
19576;BME280;41589;51.196;7.074;2022-12-10T03:38:53;98170.34;;;0.20;100.00
19576;BME280;41589;51.196;7.074;2022-12-10T03:43:56;98167.13;;;0.21;100.00
19576;BME280;41589;51.196;7.074;2022-12-10T03:48:58;98169.78;;;0.28;100.00
19576;BME280;41589;51.196;7.074;2022-12-10T03:53:59;98169.63;;;0.39;100.00
19576;BME280;41589;51.196;7.074;2022-12-10T03:58:59;98161.66;;;0.45;100.00
19576;BME280;41589;51.196;7.074;2022-12-10T04:03:59;98159.59;;;0.49;100.00
19576;BME280;41589;51.196;7.074;2022-12-10T04:09:00;98164.69;;;0.54;100.00
19576;BME280;41589;51.196;7.074;2022-12-10T04:14:00;98163.66;;;0.71;100.00
19576;BME280;41589;51.196;7.074;2022-12-10T04:19:21;98164.28;;;0.79;100.00
19576;BME280;41589;51.196;7.074;2022-12-10T04:24:26;98171.72;;;0.85;100.00
19576;BME280;41589;51.196;7.074;2022-12-10T04:29:45;98168.84;;;0.93;100.00
19576;BME280;41589;51.196;7.074;2022-12-10T04:34:46;98175.41;;;1.02;100.00
19576;BME280;41589;51.196;7.074;2022-12-10T04:39:48;98174.84;;;1.11;100.00
19576;BME280;41589;51.196;7.074;2022-12-10T04:44:49;98173.81;;;1.01;100.00
19576;BME280;41589;51.196;7.074;2022-12-10T04:49:49;98175.00;;;1.04;100.00
19576;BME280;41589;51.196;7.074;2022-12-10T04:54:50;98175.69;;;1.08;100.00
19576;BME280;41589;51.196;7.074;2022-12-10T04:59:50;98181.50;;;1.17;100.00
19576;BME280;41589;51.196;7.074;2022-12-10T05:04:50;98173.59;;;1.15;100.00
19576;BME280;41589;51.196;7.074;2022-12-10T05:09:50;98171.66;;;1.12;100.00
19576;BME280;41589;51.196;7.074;2022-12-10T05:14:51;98173.28;;;1.10;100.00
19576;BME280;41589;51.196;7.074;2022-12-10T05:19:51;98172.47;;;1.13;100.00
19576;BME280;41589;51.196;7.074;2022-12-10T05:24:51;98173.44;;;1.03;100.00
19576;BME280;41589;51.196;7.074;2022-12-10T05:29:52;98167.88;;;1.03;100.00
19576;BME280;41589;51.196;7.074;2022-12-10T05:34:52;98171.28;;;1.10;100.00
19576;BME280;41589;51.196;7.074;2022-12-10T05:39:52;98182.69;;;1.16;100.00
19576;BME280;41589;51.196;7.074;2022-12-10T05:44:53;98173.44;;;1.23;100.00
19576;BME280;41589;51.196;7.074;2022-12-10T05:49:53;98180.72;;;1.16;100.00
19576;BME280;41589;51.196;7.074;2022-12-10T05:54:53;98182.34;;;1.14;100.00
19576;BME280;41589;51.196;7.074;2022-12-10T05:59:54;98189.81;;;1.17;100.00
19576;BME280;41589;51.196;7.074;2022-12-10T06:04:54;98196.25;;;1.10;100.00
19576;BME280;41589;51.196;7.074;2022-12-10T06:09:54;98194.13;;;1.18;100.00
19576;BME280;41589;51.196;7.074;2022-12-10T06:14:55;98193.88;;;1.32;100.00
19576;BME280;41589;51.196;7.074;2022-12-10T06:19:55;98188.28;;;1.36;100.00
19576;BME280;41589;51.196;7.074;2022-12-10T06:24:55;98193.97;;;1.29;100.00
19576;BME280;41589;51.196;7.074;2022-12-10T06:29:56;98191.53;;;1.31;100.00
19576;BME280;41589;51.196;7.074;2022-12-10T06:34:56;98191.72;;;1.20;100.00
19576;BME280;41589;51.196;7.074;2022-12-10T06:39:56;98191.38;;;1.18;100.00
19576;BME280;41589;51.196;7.074;2022-12-10T06:44:57;98204.19;;;1.08;100.00
19576;BME280;41589;51.196;7.074;2022-12-10T06:49:57;98203.00;;;1.09;100.00
19576;BME280;41589;51.196;7.074;2022-12-10T06:54:57;98209.84;;;1.01;100.00
19576;BME280;41589;51.196;7.074;2022-12-10T06:59:58;98207.50;;;1.00;100.00
19576;BME280;41589;51.196;7.074;2022-12-10T07:04:58;98220.13;;;0.77;100.00
19576;BME280;41589;51.196;7.074;2022-12-10T07:09:58;98223.06;;;0.67;100.00
19576;BME280;41589;51.196;7.074;2022-12-10T07:14:59;98234.03;;;0.74;100.00
19576;BME280;41589;51.196;7.074;2022-12-10T07:19:59;98239.59;;;0.74;100.00
19576;BME280;41589;51.196;7.074;2022-12-10T07:24:59;98242.44;;;0.67;100.00
19576;BME280;41589;51.196;7.074;2022-12-10T07:30:00;98241.31;;;0.64;100.00
19576;BME280;41589;51.196;7.074;2022-12-10T07:35:00;98254.41;;;0.60;100.00
19576;BME280;41589;51.196;7.074;2022-12-10T07:40:01;98256.38;;;0.59;100.00
19576;BME280;41589;51.196;7.074;2022-12-10T07:45:02;98247.56;;;0.68;100.00
19576;BME280;41589;51.196;7.074;2022-12-10T07:50:03;98255.94;;;0.65;100.00
19576;BME280;41589;51.196;7.074;2022-12-10T07:55:03;98263.63;;;0.50;100.00
19576;BME280;41589;51.196;7.074;2022-12-10T08:00:04;98262.47;;;0.51;100.00
19576;BME280;41589;51.196;7.074;2022-12-10T08:05:12;98269.16;;;0.53;100.00
19576;BME280;41589;51.196;7.074;2022-12-10T08:10:12;98283.31;;;0.59;100.00
19576;BME280;41589;51.196;7.074;2022-12-10T08:15:12;98290.88;;;0.55;100.00
19576;BME280;41589;51.196;7.074;2022-12-10T08:20:13;98299.19;;;0.55;100.00
19576;BME280;41589;51.196;7.074;2022-12-10T08:25:13;98300.31;;;0.61;100.00
19576;BME280;41589;51.196;7.074;2022-12-10T08:30:13;98296.66;;;0.68;100.00
19576;BME280;41589;51.196;7.074;2022-12-10T08:35:14;98305.75;;;0.68;100.00
19576;BME280;41589;51.196;7.074;2022-12-10T08:40:14;98306.00;;;0.77;100.00
19576;BME280;41589;51.196;7.074;2022-12-10T08:45:15;98306.28;;;0.86;100.00
19576;BME280;41589;51.196;7.074;2022-12-10T08:50:15;98327.94;;;0.95;100.00
19576;BME280;41589;51.196;7.074;2022-12-10T08:55:17;98330.66;;;0.99;100.00
19576;BME280;41589;51.196;7.074;2022-12-10T09:00:17;98330.28;;;0.97;100.00
19576;BME280;41589;51.196;7.074;2022-12-10T09:05:18;98332.34;;;0.93;100.00
19576;BME280;41589;51.196;7.074;2022-12-10T09:10:19;98339.34;;;1.01;100.00
19576;BME280;41589;51.196;7.074;2022-12-10T09:15:20;98339.59;;;1.10;100.00
19576;BME280;41589;51.196;7.074;2022-12-10T09:20:20;98343.91;;;1.14;100.00
19576;BME280;41589;51.196;7.074;2022-12-10T09:25:21;98346.25;;;1.16;100.00
19576;BME280;41589;51.196;7.074;2022-12-10T09:30:21;98336.41;;;1.11;100.00
19576;BME280;41589;51.196;7.074;2022-12-10T09:35:21;98340.88;;;1.05;100.00
19576;BME280;41589;51.196;7.074;2022-12-10T09:40:31;98339.97;;;1.12;100.00
19576;BME280;41589;51.196;7.074;2022-12-10T09:51:01;98351.31;;;1.21;100.00
19576;BME280;41589;51.196;7.074;2022-12-10T09:56:06;98349.22;;;1.29;100.00
19576;BME280;41589;51.196;7.074;2022-12-10T10:01:16;98341.53;;;1.40;100.00
19576;BME280;41589;51.196;7.074;2022-12-10T10:06:27;98348.72;;;1.61;100.00
19576;BME280;41589;51.196;7.074;2022-12-10T10:11:30;98339.00;;;1.72;100.00
19576;BME280;41589;51.196;7.074;2022-12-10T10:16:42;98340.84;;;1.59;100.00
19576;BME280;41589;51.196;7.074;2022-12-10T10:21:48;98351.66;;;1.50;100.00
19576;BME280;41589;51.196;7.074;2022-12-10T10:26:51;98347.56;;;1.35;100.00
19576;BME280;41589;51.196;7.074;2022-12-10T10:37:20;98353.63;;;1.26;100.00
19576;BME280;41589;51.196;7.074;2022-12-10T10:42:36;98360.59;;;1.38;100.00
19576;BME280;41589;51.196;7.074;2022-12-10T10:47:37;98360.13;;;1.16;100.00
19576;BME280;41589;51.196;7.074;2022-12-10T10:52:38;98352.97;;;1.42;100.00
19576;BME280;41589;51.196;7.074;2022-12-10T10:57:39;98358.59;;;1.38;100.00
19576;BME280;41589;51.196;7.074;2022-12-10T11:02:42;98340.75;;;1.39;100.00
19576;BME280;41589;51.196;7.074;2022-12-10T11:07:42;98350.97;;;1.46;100.00
19576;BME280;41589;51.196;7.074;2022-12-10T11:13:24;98349.44;;;1.41;100.00
19576;BME280;41589;51.196;7.074;2022-12-10T11:23:40;98353.91;;;1.59;100.00
19576;BME280;41589;51.196;7.074;2022-12-10T11:39:42;98336.34;;;1.42;100.00
19576;BME280;41589;51.196;7.074;2022-12-10T11:50:37;98345.25;;;1.57;100.00
19576;BME280;41589;51.196;7.074;2022-12-10T11:56:07;98351.41;;;1.68;100.00
19576;BME280;41589;51.196;7.074;2022-12-10T12:17:27;98364.00;;;1.72;100.00
19576;BME280;41589;51.196;7.074;2022-12-10T12:22:34;98365.50;;;1.77;100.00
19576;BME280;41589;51.196;7.074;2022-12-10T12:27:48;98351.31;;;1.71;100.00
19576;BME280;41589;51.196;7.074;2022-12-10T12:38:35;98360.38;;;1.75;100.00
19576;BME280;41589;51.196;7.074;2022-12-10T12:48:55;98363.22;;;1.72;100.00
19576;BME280;41589;51.196;7.074;2022-12-10T12:53:57;98365.13;;;1.75;100.00
19576;BME280;41589;51.196;7.074;2022-12-10T12:59:11;98369.50;;;1.76;100.00
19576;BME280;41589;51.196;7.074;2022-12-10T13:04:18;98360.75;;;1.78;100.00
19576;BME280;41589;51.196;7.074;2022-12-10T13:09:27;98360.31;;;1.79;100.00
19576;BME280;41589;51.196;7.074;2022-12-10T13:21:15;98357.56;;;1.79;100.00
19576;BME280;41589;51.196;7.074;2022-12-10T13:26:29;98353.13;;;1.82;100.00
19576;BME280;41589;51.196;7.074;2022-12-10T13:31:42;98363.00;;;1.86;100.00
19576;BME280;41589;51.196;7.074;2022-12-10T13:37:30;98363.78;;;1.87;100.00
19576;BME280;41589;51.196;7.074;2022-12-10T13:42:37;98358.25;;;1.83;100.00
19576;BME280;41589;51.196;7.074;2022-12-10T13:48:24;98367.31;;;1.87;100.00
19576;BME280;41589;51.196;7.074;2022-12-10T13:53:43;98369.97;;;1.94;100.00
19576;BME280;41589;51.196;7.074;2022-12-10T13:58:58;98373.59;;;1.91;100.00
19576;BME280;41589;51.196;7.074;2022-12-10T14:09:58;98387.97;;;2.10;100.00
19576;BME280;41589;51.196;7.074;2022-12-10T14:15:54;98380.47;;;2.07;100.00
19576;BME280;41589;51.196;7.074;2022-12-10T14:21:16;98391.38;;;1.94;100.00
19576;BME280;41589;51.196;7.074;2022-12-10T14:32:40;98391.47;;;1.90;100.00
19576;BME280;41589;51.196;7.074;2022-12-10T14:37:49;98404.00;;;1.98;100.00
19576;BME280;41589;51.196;7.074;2022-12-10T14:43:20;98394.38;;;2.07;100.00
19576;BME280;41589;51.196;7.074;2022-12-10T14:48:41;98402.56;;;1.90;100.00
19576;BME280;41589;51.196;7.074;2022-12-10T14:53:53;98413.75;;;1.83;100.00
19576;BME280;41589;51.196;7.074;2022-12-10T15:04:21;98403.94;;;1.79;100.00
19576;BME280;41589;51.196;7.074;2022-12-10T15:09:33;98407.06;;;1.81;100.00
19576;BME280;41589;51.196;7.074;2022-12-10T15:14:43;98422.09;;;1.83;100.00
19576;BME280;41589;51.196;7.074;2022-12-10T15:19:54;98393.09;;;1.88;100.00
19576;BME280;41589;51.196;7.074;2022-12-10T15:24:57;98408.81;;;1.94;100.00
19576;BME280;41589;51.196;7.074;2022-12-10T15:30:24;98424.75;;;1.90;100.00
19576;BME280;41589;51.196;7.074;2022-12-10T15:35:35;98421.63;;;1.88;100.00
19576;BME280;41589;51.196;7.074;2022-12-10T15:41:20;98421.72;;;1.81;100.00
19576;BME280;41589;51.196;7.074;2022-12-10T15:46:46;98421.00;;;1.77;100.00
19576;BME280;41589;51.196;7.074;2022-12-10T15:51:59;98438.94;;;1.96;100.00
19576;BME280;41589;51.196;7.074;2022-12-10T15:57:18;98428.94;;;2.02;100.00
19576;BME280;41589;51.196;7.074;2022-12-10T16:07:45;98430.81;;;2.09;100.00
19576;BME280;41589;51.196;7.074;2022-12-10T16:13:00;98433.84;;;2.18;100.00
19576;BME280;41589;51.196;7.074;2022-12-10T16:18:09;98446.00;;;2.00;100.00
19576;BME280;41589;51.196;7.074;2022-12-10T16:23:20;98440.53;;;1.97;100.00
19576;BME280;41589;51.196;7.074;2022-12-10T16:28:34;98433.38;;;1.96;100.00
19576;BME280;41589;51.196;7.074;2022-12-10T16:33:41;98431.03;;;1.94;100.00
19576;BME280;41589;51.196;7.074;2022-12-10T16:38:47;98426.31;;;1.91;100.00
19576;BME280;41589;51.196;7.074;2022-12-10T16:43:53;98442.88;;;1.98;100.00
19576;BME280;41589;51.196;7.074;2022-12-10T16:48:55;98433.69;;;2.01;100.00
19576;BME280;41589;51.196;7.074;2022-12-10T16:53:59;98442.44;;;2.00;100.00
19576;BME280;41589;51.196;7.074;2022-12-10T16:59:04;98436.59;;;1.94;100.00
19576;BME280;41589;51.196;7.074;2022-12-10T17:04:05;98443.03;;;1.88;100.00
19576;BME280;41589;51.196;7.074;2022-12-10T17:09:09;98449.19;;;1.75;100.00
19576;BME280;41589;51.196;7.074;2022-12-10T17:14:33;98445.72;;;1.68;100.00
19576;BME280;41589;51.196;7.074;2022-12-10T17:19:44;98446.78;;;1.78;100.00
19576;BME280;41589;51.196;7.074;2022-12-10T17:24:45;98444.78;;;1.78;100.00
19576;BME280;41589;51.196;7.074;2022-12-10T17:29:49;98454.97;;;1.85;100.00
19576;BME280;41589;51.196;7.074;2022-12-10T17:35:04;98438.63;;;1.90;100.00
19576;BME280;41589;51.196;7.074;2022-12-10T17:40:22;98444.25;;;1.87;100.00
19576;BME280;41589;51.196;7.074;2022-12-10T17:45:33;98448.09;;;1.93;100.00
19576;BME280;41589;51.196;7.074;2022-12-10T17:50:48;98453.72;;;1.89;100.00
19576;BME280;41589;51.196;7.074;2022-12-10T17:55:57;98453.38;;;1.87;100.00
19576;BME280;41589;51.196;7.074;2022-12-10T18:01:10;98459.28;;;1.89;100.00
19576;BME280;41589;51.196;7.074;2022-12-10T18:06:18;98457.28;;;1.90;100.00
19576;BME280;41589;51.196;7.074;2022-12-10T18:11:23;98454.50;;;1.90;100.00
19576;BME280;41589;51.196;7.074;2022-12-10T18:16:32;98460.59;;;1.81;100.00
19576;BME280;41589;51.196;7.074;2022-12-10T18:21:37;98466.41;;;1.90;100.00
19576;BME280;41589;51.196;7.074;2022-12-10T18:26:44;98469.84;;;1.98;100.00
19576;BME280;41589;51.196;7.074;2022-12-10T18:31:51;98469.63;;;2.12;100.00
19576;BME280;41589;51.196;7.074;2022-12-10T18:37:05;98479.16;;;2.11;100.00
19576;BME280;41589;51.196;7.074;2022-12-10T18:42:16;98468.16;;;2.04;100.00
19576;BME280;41589;51.196;7.074;2022-12-10T18:47:22;98477.25;;;2.04;100.00
19576;BME280;41589;51.196;7.074;2022-12-10T18:52:32;98473.69;;;2.04;100.00
19576;BME280;41589;51.196;7.074;2022-12-10T18:57:39;98469.16;;;1.90;100.00
19576;BME280;41589;51.196;7.074;2022-12-10T19:02:48;98476.63;;;1.97;100.00
19576;BME280;41589;51.196;7.074;2022-12-10T19:07:52;98479.69;;;2.02;100.00
19576;BME280;41589;51.196;7.074;2022-12-10T19:12:56;98486.00;;;2.03;100.00
19576;BME280;41589;51.196;7.074;2022-12-10T19:18:03;98477.94;;;2.12;100.00
19576;BME280;41589;51.196;7.074;2022-12-10T19:23:13;98486.69;;;2.11;100.00
19576;BME280;41589;51.196;7.074;2022-12-10T19:28:23;98487.59;;;2.04;100.00
19576;BME280;41589;51.196;7.074;2022-12-10T19:33:27;98481.94;;;2.11;100.00
19576;BME280;41589;51.196;7.074;2022-12-10T19:38:32;98484.81;;;2.04;100.00
19576;BME280;41589;51.196;7.074;2022-12-10T19:43:35;98472.72;;;1.91;100.00
19576;BME280;41589;51.196;7.074;2022-12-10T19:48:39;98474.41;;;1.85;100.00
19576;BME280;41589;51.196;7.074;2022-12-10T19:53:46;98482.41;;;2.06;100.00
19576;BME280;41589;51.196;7.074;2022-12-10T19:58:55;98474.66;;;1.94;100.00
19576;BME280;41589;51.196;7.074;2022-12-10T20:03:59;98464.66;;;2.00;100.00
19576;BME280;41589;51.196;7.074;2022-12-10T20:09:19;98478.97;;;1.98;100.00
19576;BME280;41589;51.196;7.074;2022-12-10T20:14:26;98462.56;;;2.08;100.00
19576;BME280;41589;51.196;7.074;2022-12-10T20:19:29;98470.88;;;2.08;100.00
19576;BME280;41589;51.196;7.074;2022-12-10T20:24:42;98470.72;;;2.18;100.00
19576;BME280;41589;51.196;7.074;2022-12-10T20:29:59;98469.25;;;2.10;100.00
19576;BME280;41589;51.196;7.074;2022-12-10T20:35:13;98474.13;;;2.02;100.00
19576;BME280;41589;51.196;7.074;2022-12-10T20:40:19;98475.94;;;1.89;100.00
19576;BME280;41589;51.196;7.074;2022-12-10T20:45:29;98484.94;;;1.97;100.00
19576;BME280;41589;51.196;7.074;2022-12-10T20:50:39;98476.28;;;1.91;100.00
19576;BME280;41589;51.196;7.074;2022-12-10T20:55:46;98471.16;;;1.90;100.00
19576;BME280;41589;51.196;7.074;2022-12-10T21:00:50;98470.06;;;1.84;100.00
19576;BME280;41589;51.196;7.074;2022-12-10T21:05:53;98470.84;;;1.84;100.00
19576;BME280;41589;51.196;7.074;2022-12-10T21:11:04;98470.06;;;1.84;100.00
19576;BME280;41589;51.196;7.074;2022-12-10T21:16:14;98474.03;;;1.83;100.00
19576;BME280;41589;51.196;7.074;2022-12-10T21:21:19;98470.06;;;1.84;100.00
19576;BME280;41589;51.196;7.074;2022-12-10T21:26:21;98477.06;;;1.92;100.00
19576;BME280;41589;51.196;7.074;2022-12-10T21:31:28;98471.34;;;2.02;100.00
19576;BME280;41589;51.196;7.074;2022-12-10T21:36:34;98466.34;;;1.94;100.00
19576;BME280;41589;51.196;7.074;2022-12-10T21:41:41;98466.47;;;1.87;100.00
19576;BME280;41589;51.196;7.074;2022-12-10T21:47:03;98466.84;;;1.85;100.00
19576;BME280;41589;51.196;7.074;2022-12-10T21:52:07;98471.00;;;1.73;100.00
19576;BME280;41589;51.196;7.074;2022-12-10T21:57:08;98467.78;;;1.79;100.00
19576;BME280;41589;51.196;7.074;2022-12-10T22:02:17;98469.00;;;1.74;100.00
19576;BME280;41589;51.196;7.074;2022-12-10T22:07:20;98473.84;;;1.70;100.00
19576;BME280;41589;51.196;7.074;2022-12-10T22:12:27;98465.03;;;1.75;100.00
19576;BME280;41589;51.196;7.074;2022-12-10T22:17:49;98480.38;;;1.83;100.00
19576;BME280;41589;51.196;7.074;2022-12-10T22:22:55;98468.19;;;1.77;100.00
19576;BME280;41589;51.196;7.074;2022-12-10T22:28:03;98471.38;;;1.75;100.00
19576;BME280;41589;51.196;7.074;2022-12-10T22:33:04;98477.72;;;1.76;100.00
19576;BME280;41589;51.196;7.074;2022-12-10T22:38:04;98475.75;;;1.73;100.00
19576;BME280;41589;51.196;7.074;2022-12-10T22:43:05;98467.72;;;1.82;100.00
19576;BME280;41589;51.196;7.074;2022-12-10T22:48:05;98466.63;;;1.76;100.00
19576;BME280;41589;51.196;7.074;2022-12-10T22:53:06;98468.88;;;1.58;100.00
19576;BME280;41589;51.196;7.074;2022-12-10T22:58:06;98467.34;;;1.53;100.00
19576;BME280;41589;51.196;7.074;2022-12-10T23:03:06;98482.94;;;1.70;100.00
19576;BME280;41589;51.196;7.074;2022-12-10T23:08:07;98475.88;;;1.66;100.00
19576;BME280;41589;51.196;7.074;2022-12-10T23:13:07;98479.47;;;1.63;100.00
19576;BME280;41589;51.196;7.074;2022-12-10T23:18:10;98479.53;;;1.59;100.00
19576;BME280;41589;51.196;7.074;2022-12-10T23:23:11;98476.69;;;1.63;100.00
19576;BME280;41589;51.196;7.074;2022-12-10T23:28:12;98466.19;;;1.51;100.00
19576;BME280;41589;51.196;7.074;2022-12-10T23:33:13;98474.72;;;1.36;100.00
19576;BME280;41589;51.196;7.074;2022-12-10T23:38:13;98468.25;;;1.43;100.00
19576;BME280;41589;51.196;7.074;2022-12-10T23:43:14;98458.97;;;1.57;100.00
19576;BME280;41589;51.196;7.074;2022-12-10T23:48:14;98462.78;;;1.39;100.00
19576;BME280;41589;51.196;7.074;2022-12-10T23:53:15;98462.09;;;1.59;100.00
19576;BME280;41589;51.196;7.074;2022-12-10T23:58:15;98460.34;;;1.45;100.00
